FLIGHT INFORMATION
Southwest Airlines

SWA424

At Arrival Gate

KMDW
 KLAX
DATE: 2020-01-24
GATE: A15
GATE DEPARTURE: 19:48
TAKEOFF: 19:57
DATE: 2020-01-24
GATE:  -
LANDING: 23:45
GATE ARRIVAL: 23:53
FLIGHT DATA
Crew: MICHAEL ROTH
Speed: 454 kts Altitude: 38000 ft
Stage Length: 1518 nm
Route: 
Block Time: 4.1 Flight Time: 3.8
Fuel Used: 20139 LB
TRACK DATA
50000 FT1000 KTAltitudeSpeed
AIRCRAFT INFORMATION
Aircraft Type: B737BW
Registration: N250WN
SELCAL: NULL MSN/LN: 34972 / 2019
Operator: SOUTHWEST AIRLINES
Flights: 6 Block Time: 14.1 Flight Time: 12.6
Fuel Used: 56436 LB
  • DEPARTURE INFORMATION
    Date: 2020-01-24
    Airport: KMDW
    Gate: A15
    Gate Departure: 19:48
    Takeoff: 19:57
    ARRIVAL INFORMATION
    Date: 2020-01-24
    Airport: KLAX
    Gate:  -
    Landing: 23:45
    Gate Arrival: 23:53
  • FLIGHT DATA
    Crew: MICHAEL ROTH
    Speed: 454 kts Altitude: 38000 ft
    Stage Length: 820 nm
    Route: 
    Block Time: 4.1 Flight Time: 3.8
    Fuel Used: 20139 LB
  • AIRCRAFT INFORMATION
    Aircraft Type: B737BW
    Registration: N250WN
    SELCAL: NULL MSN/LN: 34972 / 2019
    Operator: Southwest Airlines
    Flights: 6 Block Time: 14.1 Flight Time: 12.6
    Fuel Used: 56436 LB

DATALINK LOG | Newest first | Current as of: 2020-05-27 01:38:50
LABEL ID SEQUENCE CONTENT Dn/Up
QD532223:53 5.7▼ Dn
QC465823:45▼ Dn
2U2109KLAX 250153Z 21005KT 10SM FEW013 FEW070 SCT150 16/12 A2996 RMK AO2 SLP144 T01610122▲ Up
2S2109KLAX▼ Dn
QB570019:57▼ Dn
QA481419:48 25.9▼ Dn
2U4111KMDW 242256Z 00000KT 1SM R31C/1800VP6000FT -RA BR BKN003 OVC008 03/03 A2978 RMK AO2 P0000 T00330033▲ Up
2S4111KMDW▼ Dn
A32645CLEARED TO KLAX VIA PEKUE OBENE MONNY IANNA FOD KD69A DBL CHESZ Q88 HAKMN ANJLL4. SQUAWK 1514.▲ Up
A32554CLEARED TO KLAX VIA PEKUE OBENE MONNY IANNA FOD KD69A DBL CHESZ Q88 HAKMN ANJLL4. SQUAWK 2213.▲ Up
2U4046KMDW 242256Z 00000KT 1SM R31C/1800VP6000FT -RA BR BKN003 OVC008 03/03 A2978 RMK AO2 P0000 T00330033▲ Up
2S4046KMDW▼ Dn
Q02443[LINK ACK]▲ Up
Q03940[LINK TEST]▼ Dn


AIRCRAFT HISTORY
FLIGHT DATE FLIGHT NUMBER ORIGIN DESTINATION ROUTE BLOCK TIME FLIGHT TIME FUEL USED (LB) PILOT
2020-02-26SWA226KPDX KMCI 3.1310531Randall Smith
2020-02-25SWA225KTWF KPDX 2.31.99702Charles Harris
2020-02-11SWA211KBZN KTWF 1.10.85287Charles Harris
2020-01-26SWA126KSLC KBZN 1.415887Randall Smith
2020-01-26SWA126KLAX KSLC 1.61.64891Randall Smith
2020-01-24SWA424KMDW KLAX 4.13.820139Michael Roth